Newport (Shropshire), United Kingdom
Current Conditions -  °F | °C
As of 8:20 AM on Thursday 27 Nov 2014 (Local Time) from EGOS Reporting Station
Moderate Fog Moderate Fog  
Wind Chill: 45°   Ceiling: 200
Heat Index: 45°   Visibility: 0.37mi
Dew Point: 43°   Wind: 3mph
Humidity: 93%   Direction: 100°E
Pressure: 29.59"   Gusts: NA
Location:  52.77°N, 2.38°W
Report Text: EGOS 270820Z 10003KT 0600 FG SCT001 BKN002 07/06 Q1002 RED TEMPO 1200 BR BKN002 AMB
Loading
Personal Weather Stations






























Interactive Weather Map New forecast layout! Learn more

10-Day Weather Forecast

Advertisements
Track Severe Weather on mobile